createdAt,value
2018-04-06T00:00:55.437Z,2.04
2018-04-06T00:01:54.904Z,1.93
2018-04-06T00:02:55.406Z,1.84
2018-04-06T00:03:55.384Z,1.9
2018-04-06T00:04:55.113Z,1.71
2018-04-06T00:05:55.096Z,1.72
2018-04-06T00:06:55.342Z,1.74
2018-04-06T00:07:55.065Z,1.76
2018-04-06T00:08:55.047Z,1.69
2018-04-06T00:09:54.772Z,1.6
2018-04-06T00:10:55.272Z,1.51
2018-04-06T00:11:55.257Z,1.5
2018-04-06T00:12:55.242Z,1.46
2018-04-06T00:13:54.977Z,1.47
2018-04-06T00:14:54.951Z,1.42
2018-04-06T00:15:55.188Z,1.48
2018-04-06T00:16:55.173Z,1.4
2018-04-06T00:17:55.162Z,1.46
2018-04-06T00:18:54.881Z,1.36
2018-04-06T00:19:55.127Z,1.32
2018-04-06T00:20:54.859Z,1.29
2018-04-06T00:21:55.096Z,1.29
2018-04-06T00:22:54.825Z,1.21
2018-04-06T00:23:55.059Z,1.21
2018-04-06T00:24:54.786Z,1.14
2018-04-06T00:25:55.024Z,1.11
2018-04-06T00:26:54.750Z,1.14
2018-04-06T00:27:54.732Z,1.12
2018-04-06T00:28:54.718Z,1.12
2018-04-06T00:29:54.701Z,1.03
2018-04-06T00:30:54.684Z,1.04
2018-04-06T00:31:54.925Z,1.02
2018-04-06T00:32:54.908Z,0.94
2018-04-06T00:33:54.894Z,0.86
2018-04-06T00:34:54.875Z,0.96
2018-04-06T00:35:54.857Z,0.81
2018-04-06T00:36:54.584Z,0.78
2018-04-06T00:37:54.568Z,0.71
2018-04-06T00:38:54.293Z,0.78
2018-04-06T00:39:54.795Z,0.74
2018-04-06T00:40:54.259Z,0.69
2018-04-06T00:41:54.857Z,0.67
2018-04-06T00:42:54.484Z,0.64
2018-04-06T00:43:54.724Z,0.5
2018-04-06T00:44:54.712Z,0.56
2018-04-06T00:45:54.690Z,0.47
2018-04-06T00:46:54.673Z,0.5
2018-04-06T00:47:54.656Z,0.48
2018-04-06T00:48:54.387Z,0.5
2018-04-06T00:49:54.363Z,0.47
2018-04-06T00:50:54.088Z,0.48
2018-04-06T00:51:54.595Z,0.41
2018-04-06T00:52:54.576Z,0.37
2018-04-06T00:53:54.298Z,0.35
2018-04-06T00:54:54.281Z,0.31
2018-04-06T00:55:54.524Z,0.23
2018-04-06T00:56:53.989Z,0.26
2018-04-06T00:57:54.231Z,0.26
2018-04-06T00:58:54.215Z,0.19
2018-04-06T00:59:54.502Z,0.14
2018-04-06T01:00:54.439Z,0.17
2018-04-06T01:01:54.425Z,0.17
2018-04-06T01:02:54.147Z,0.19
2018-04-06T01:03:54.386Z,0.2
2018-04-06T01:04:54.375Z,0.26
2018-04-06T01:05:54.351Z,0.14
2018-04-06T01:06:54.078Z,0.17
2018-04-06T01:07:54.314Z,0.1
2018-04-06T01:08:54.159Z,0.09
2018-04-06T01:09:54.287Z,0.1
2018-04-06T01:10:54.274Z,0.1
2018-04-06T01:11:53.989Z,0.19
2018-04-06T01:12:54.236Z,0.09
2018-04-06T01:13:53.953Z,0.16
2018-04-06T01:14:53.940Z,0.14
2018-04-06T01:15:54.178Z,0.17
2018-04-06T01:16:53.906Z,0.13
2018-04-06T01:17:53.884Z,0.01
2018-04-06T01:18:54.128Z,0.05
2018-04-06T01:19:53.592Z,-0.01
2018-04-06T01:20:54.091Z,-0.04
2018-04-06T01:21:54.082Z,0.01
2018-04-06T01:22:54.061Z,0.01
2018-04-06T01:23:53.782Z,0.05
2018-04-06T01:24:54.026Z,0.03
2018-04-06T01:25:54.010Z,0.1
2018-04-06T01:26:53.987Z,0.16
2018-04-06T01:27:53.969Z,0.13
2018-04-06T01:28:53.956Z,0.06
2018-04-06T01:29:53.683Z,0.14
2018-04-06T01:30:53.660Z,0.17
2018-04-06T01:31:53.904Z,0.17
2018-04-06T01:32:53.884Z,0.08
2018-04-06T01:33:53.872Z,0.09
2018-04-06T01:34:53.332Z,0.02
2018-04-06T01:35:53.831Z,0.05
2018-04-06T01:36:53.866Z,0.05
2018-04-06T01:37:53.280Z,-0.1
2018-04-06T01:38:53.521Z,-0.12
2018-04-06T01:39:53.506Z,-0.13
2018-04-06T01:40:53.488Z,-0.1
2018-04-06T01:41:53.727Z,-0.1
2018-04-06T01:42:53.457Z,-0.12
2018-04-06T01:43:53.692Z,-0.09
2018-04-06T01:44:53.677Z,-0.01
2018-04-06T01:45:53.400Z,0.05
2018-04-06T01:46:53.647Z,0.09
2018-04-06T01:47:53.362Z,0.14
2018-04-06T01:48:53.359Z,0.13
2018-04-06T01:49:53.591Z,0.1
2018-04-06T01:50:53.312Z,0.14
2018-04-06T01:51:53.039Z,0.2
2018-04-06T01:52:53.320Z,0.2
2018-04-06T01:53:53.003Z,0.16
2018-04-06T01:54:53.505Z,0.23
2018-04-06T01:55:53.485Z,0.26
2018-04-06T01:56:52.955Z,0.28
2018-04-06T01:57:53.449Z,0.35
2018-04-06T01:58:53.429Z,0.34
2018-04-06T01:59:53.442Z,0.41
2018-04-06T02:00:53.138Z,0.47
2018-04-06T02:01:53.389Z,0.48
2018-04-06T02:02:53.113Z,0.58
2018-04-06T02:03:53.345Z,0.64
2018-04-06T02:04:52.813Z,0.71
2018-04-06T02:05:53.060Z,0.79
2018-04-06T02:06:53.035Z,0.84
2018-04-06T02:07:52.766Z,0.78
2018-04-06T02:08:53.260Z,0.81
2018-04-06T02:09:52.984Z,0.82
2018-04-06T02:10:53.230Z,0.78
2018-04-06T02:11:53.209Z,0.75
2018-04-06T02:12:52.934Z,0.78
2018-04-06T02:13:53.178Z,0.75
2018-04-06T02:14:53.154Z,0.76
2018-04-06T02:15:52.882Z,0.85
2018-04-06T02:16:52.864Z,0.79
2018-04-06T02:17:53.111Z,0.74
2018-04-06T02:18:53.089Z,0.67
2018-04-06T02:19:53.082Z,0.5
2018-04-06T02:20:52.800Z,0.44
2018-04-06T02:21:53.039Z,0.44
2018-04-06T02:22:53.020Z,0.42
2018-04-06T02:23:53.006Z,0.32
2018-04-06T02:24:52.787Z,0.24
2018-04-06T02:25:52.715Z,0.21
2018-04-06T02:26:52.959Z,0.27
2018-04-06T02:27:52.420Z,0.24
2018-04-06T02:28:52.662Z,0.26
2018-04-06T02:29:52.903Z,0.2
2018-04-06T02:30:52.941Z,0.09
2018-04-06T02:31:52.884Z,0.16
2018-04-06T02:32:52.605Z,0.01
2018-04-06T02:33:52.843Z,0.02
2018-04-06T02:34:52.302Z,0.05
2018-04-06T02:35:52.552Z,-0.09
2018-04-06T02:36:52.541Z,-0.15
2018-04-06T02:37:52.769Z,-0.13
2018-04-06T02:38:52.502Z,-0.13
2018-04-06T02:39:52.732Z,-0.22
2018-04-06T02:40:52.455Z,-0.25
2018-04-06T02:41:52.697Z,-0.31
2018-04-06T02:42:52.680Z,-0.31
2018-04-06T02:43:52.662Z,-0.28
2018-04-06T02:44:52.655Z,-0.45
2018-04-06T02:45:52.633Z,-0.46
2018-04-06T02:46:52.610Z,-0.48
2018-04-06T02:47:52.590Z,-0.51
2018-04-06T02:48:52.629Z,-0.48
2018-04-06T02:49:52.556Z,-0.59
2018-04-06T02:50:52.280Z,-0.56
2018-04-06T02:51:52.535Z,-0.58
2018-04-06T02:52:52.251Z,-0.58
2018-04-06T02:53:51.969Z,-0.61
2018-04-06T02:54:52.469Z,-0.59
2018-04-06T02:55:52.200Z,-0.7
2018-04-06T02:56:52.435Z,-0.56
2018-04-06T02:57:52.160Z,-0.55
2018-04-06T02:58:52.400Z,-0.73
2018-04-06T02:59:51.864Z,-0.69
2018-04-06T03:00:52.107Z,-0.69
2018-04-06T03:01:52.346Z,-0.58
2018-04-06T03:02:52.380Z,-0.64
2018-04-06T03:03:52.313Z,-0.66
2018-04-06T03:04:52.038Z,-0.72
2018-04-06T03:05:52.275Z,-0.64
2018-04-06T03:06:51.742Z,-0.64
2018-04-06T03:07:52.242Z,-0.67
2018-04-06T03:08:52.219Z,-0.66
2018-04-06T03:09:51.946Z,-0.66
2018-04-06T03:10:51.928Z,-0.69
2018-04-06T03:11:51.909Z,-0.76
2018-04-06T03:12:51.634Z,-0.66
2018-04-06T03:13:51.873Z,-0.77
2018-04-06T03:14:52.165Z,-0.79
2018-04-06T03:15:52.096Z,-0.84
2018-04-06T03:16:52.084Z,-0.85
2018-04-06T03:17:52.063Z,-0.87
2018-04-06T03:18:51.783Z,-0.87
2018-04-06T03:19:51.511Z,-0.85
2018-04-06T03:20:52.014Z,-0.93
2018-04-06T03:21:51.735Z,-0.93
2018-04-06T03:22:51.715Z,-0.95
2018-04-06T03:23:51.437Z,-1.04
2018-04-06T03:24:51.420Z,-1.09
2018-04-06T03:25:51.402Z,-1.03
2018-04-06T03:26:51.912Z,-1.14
2018-04-06T03:27:51.624Z,-1.21
2018-04-06T03:28:51.349Z,-1.24
2018-04-06T03:29:51.849Z,-1.17
2018-04-06T03:30:51.320Z,-1.14
2018-04-06T03:31:51.821Z,-1.21
2018-04-06T03:32:51.532Z,-1.17
2018-04-06T03:33:51.776Z,-1.22
2018-04-06T03:34:51.760Z,-1.24
2018-04-06T03:35:51.743Z,-1.21
2018-04-06T03:36:51.719Z,-1.25
2018-04-06T03:37:51.704Z,-1.3
2018-04-06T03:38:51.731Z,-1.4
2018-04-06T03:39:51.409Z,-1.37
2018-04-06T03:40:51.393Z,-1.28
2018-04-06T03:41:51.644Z,-1.31
2018-04-06T03:42:51.355Z,-1.37
2018-04-06T03:43:51.338Z,-1.35
2018-04-06T03:44:51.319Z,-1.35
2018-04-06T03:45:51.297Z,-1.34
2018-04-06T03:46:51.281Z,-1.38
2018-04-06T03:47:51.526Z,-1.43
2018-04-06T03:48:51.507Z,-1.46
2018-04-06T03:49:51.481Z,-1.45
2018-04-06T03:50:51.210Z,-1.4
2018-04-06T03:51:51.192Z,-1.34
2018-04-06T03:52:51.184Z,-1.37
2018-04-06T03:53:51.414Z,-1.48
2018-04-06T03:54:51.397Z,-1.4
2018-04-06T03:55:51.123Z,-1.42
2018-04-06T03:56:51.364Z,-1.32
2018-04-06T03:57:51.085Z,-1.38
2018-04-06T03:58:50.806Z,-1.43
2018-04-06T03:59:51.303Z,-1.42
2018-04-06T04:00:51.289Z,-1.38
2018-04-06T04:01:50.755Z,-1.31
2018-04-06T04:02:51.002Z,-1.45
2018-04-06T04:03:51.233Z,-1.5
2018-04-06T04:04:50.958Z,-1.5
2018-04-06T04:05:50.681Z,-1.48
2018-04-06T04:06:51.174Z,-1.58
2018-04-06T04:07:50.641Z,-1.46
2018-04-06T04:08:50.888Z,-1.56
2018-04-06T04:09:50.864Z,-1.55
2018-04-06T04:10:51.109Z,-1.6
2018-04-06T04:11:50.839Z,-1.55
2018-04-06T04:12:51.077Z,-1.61
2018-04-06T04:13:50.792Z,-1.58
2018-04-06T04:14:50.773Z,-1.64
2018-04-06T04:15:51.011Z,-1.6
2018-04-06T04:16:50.993Z,-1.68
2018-04-06T04:17:50.717Z,-1.68
2018-04-06T04:18:50.438Z,-1.68
2018-04-06T04:19:50.939Z,-1.68
2018-04-06T04:20:50.933Z,-1.7
2018-04-06T04:21:50.903Z,-1.73
2018-04-06T04:22:50.628Z,-1.7
2018-04-06T04:23:50.350Z,-1.81
2018-04-06T04:24:50.848Z,-1.81
2018-04-06T04:25:50.831Z,-1.85
2018-04-06T04:26:50.548Z,-1.82
2018-04-06T04:27:50.531Z,-1.84
2018-04-06T04:28:50.774Z,-1.79
2018-04-06T04:29:50.502Z,-1.84
2018-04-06T04:30:50.737Z,-1.84
2018-04-06T04:31:50.722Z,-1.85
2018-04-06T04:32:50.704Z,-1.88
2018-04-06T04:33:50.429Z,-1.88
2018-04-06T04:34:50.661Z,-1.86
2018-04-06T04:35:50.645Z,-1.97
2018-04-06T04:36:50.624Z,-1.96
2018-04-06T04:37:50.606Z,-1.89
2018-04-06T04:38:50.589Z,-2.1
2018-04-06T04:39:50.571Z,-1.99
2018-04-06T04:40:50.292Z,-2
2018-04-06T04:41:50.531Z,-2.02
2018-04-06T04:42:50.516Z,-1.91
2018-04-06T04:43:50.514Z,-1.91
2018-04-06T04:44:50.477Z,-1.86
2018-04-06T04:45:49.940Z,-1.82
2018-04-06T04:46:50.576Z,-1.84
2018-04-06T04:47:50.161Z,-1.85
2018-04-06T04:48:50.143Z,-1.85
2018-04-06T04:49:50.123Z,-1.82
2018-04-06T04:50:50.408Z,-1.84
2018-04-06T04:51:50.093Z,-1.78
2018-04-06T04:52:50.329Z,-1.85
2018-04-06T04:53:50.312Z,-1.79
2018-04-06T04:54:50.033Z,-1.84
2018-04-06T04:55:50.022Z,-1.91
2018-04-06T04:56:49.994Z,-1.7
2018-04-06T04:57:49.728Z,-1.7
2018-04-06T04:58:50.217Z,-1.73
2018-04-06T04:59:50.199Z,-1.7
2018-04-06T05:00:50.174Z,-1.66
2018-04-06T05:01:49.899Z,-1.71
2018-04-06T05:02:50.136Z,-1.71
2018-04-06T05:03:49.604Z,-1.74
2018-04-06T05:04:50.103Z,-1.84
2018-04-06T05:05:50.086Z,-1.85
2018-04-06T05:06:49.808Z,-1.85
2018-04-06T05:07:50.045Z,-1.82
2018-04-06T05:08:49.772Z,-1.74
2018-04-06T05:09:50.016Z,-1.73
2018-04-06T05:10:49.730Z,-1.73
2018-04-06T05:11:49.712Z,-1.74
2018-04-06T05:12:49.955Z,-1.66
2018-04-06T05:13:49.678Z,-1.66
2018-04-06T05:14:49.656Z,-1.67
2018-04-06T05:15:49.902Z,-1.73
2018-04-06T05:16:49.619Z,-1.68
2018-04-06T05:17:49.862Z,-1.67
2018-04-06T05:18:49.848Z,-1.6
2018-04-06T05:19:49.567Z,-1.64
2018-04-06T05:20:49.805Z,-1.58
2018-04-06T05:21:49.269Z,-1.55
2018-04-06T05:22:49.765Z,-1.6
2018-04-06T05:23:49.235Z,-1.56
2018-04-06T05:24:49.731Z,-1.53
2018-04-06T05:25:49.456Z,-1.5
2018-04-06T05:26:49.439Z,-1.56
2018-04-06T05:27:49.677Z,-1.55
2018-04-06T05:28:49.399Z,-1.43
2018-04-06T05:29:49.642Z,-1.48
2018-04-06T05:30:49.104Z,-1.5
2018-04-06T05:31:49.340Z,-1.49
2018-04-06T05:32:49.323Z,-1.58
2018-04-06T05:33:49.566Z,-1.45
2018-04-06T05:34:49.550Z,-1.38
2018-04-06T05:35:49.528Z,-1.46
2018-04-06T05:36:49.251Z,-1.37
2018-04-06T05:37:49.491Z,-1.35
2018-04-06T05:38:49.332Z,-1.35
2018-04-06T05:39:49.454Z,-1.27
2018-04-06T05:40:49.180Z,-1.19
2018-04-06T05:41:49.420Z,-1.24
2018-04-06T05:42:49.404Z,-1.09
2018-04-06T05:43:49.123Z,-1.04
2018-04-06T05:44:49.362Z,-1.03
2018-04-06T05:45:49.343Z,-0.99
2018-04-06T05:46:49.325Z,-0.85
2018-04-06T05:47:49.318Z,-0.87
2018-04-06T05:48:49.300Z,-0.91
2018-04-06T05:49:49.011Z,-0.79
2018-04-06T05:50:49.257Z,-0.79
2018-04-06T05:51:48.975Z,-0.85
2018-04-06T05:52:49.220Z,-0.84
2018-04-06T05:53:49.203Z,-0.84
2018-04-06T05:54:49.179Z,-0.84
2018-04-06T05:55:49.156Z,-0.8
2018-04-06T05:56:48.886Z,-0.82
2018-04-06T05:57:48.872Z,-0.85
2018-04-06T05:58:49.112Z,-0.82
2018-04-06T05:59:48.828Z,-0.69
2018-04-06T06:00:49.069Z,-0.72
2018-04-06T06:01:49.062Z,-0.64
2018-04-06T06:02:49.034Z,-0.66
2018-04-06T06:03:48.497Z,-0.67
2018-04-06T06:04:48.997Z,-0.67
2018-04-06T06:05:48.978Z,-0.67
2018-04-06T06:06:48.961Z,-0.59
2018-04-06T06:07:48.708Z,-0.69
2018-04-06T06:08:48.670Z,-0.61
2018-04-06T06:09:48.696Z,-0.52
2018-04-06T06:10:48.885Z,-0.51
2018-04-06T06:11:48.624Z,-0.41
2018-04-06T06:12:48.595Z,-0.45
2018-04-06T06:13:48.318Z,-0.45
2018-04-06T06:14:48.816Z,-0.34
2018-04-06T06:15:48.803Z,-0.28
2018-04-06T06:16:48.783Z,-0.27
2018-04-06T06:17:48.863Z,-0.1
2018-04-06T06:18:48.747Z,-0.1
2018-04-06T06:19:48.469Z,-0.1
2018-04-06T06:20:48.711Z,0.01
2018-04-06T06:21:48.435Z,0.06
2018-04-06T06:22:48.158Z,0.03
2018-04-06T06:23:48.405Z,0.16
2018-04-06T06:24:48.121Z,0.08
2018-04-06T06:25:48.627Z,0.17
2018-04-06T06:26:48.600Z,0.21
2018-04-06T06:27:48.324Z,0.34
2018-04-06T06:28:48.313Z,0.38
2018-04-06T06:29:48.296Z,0.48
2018-04-06T06:30:48.538Z,0.53
2018-04-06T06:31:48.513Z,0.58
2018-04-06T06:32:48.501Z,0.66
2018-04-06T06:33:48.482Z,0.64
2018-04-06T06:34:48.466Z,0.75
2018-04-06T06:35:48.187Z,0.85
2018-04-06T06:36:47.912Z,0.85
2018-04-06T06:37:48.152Z,0.96
2018-04-06T06:38:47.874Z,1.15
2018-04-06T06:39:48.373Z,1.46
2018-04-06T06:40:48.358Z,1.84
2018-04-06T06:41:48.080Z,2.29
2018-04-06T06:42:47.807Z,2.72
2018-04-06T06:43:48.050Z,3.16
2018-04-06T06:44:48.288Z,3.63
2018-04-06T06:45:48.274Z,4.07
2018-04-06T06:46:48.254Z,4.48
2018-04-06T06:47:47.986Z,4.94
2018-04-06T06:48:47.975Z,5.44
2018-04-06T06:49:47.956Z,6.03
2018-04-06T06:50:47.935Z,6.47
2018-04-06T06:51:47.917Z,7
2018-04-06T06:52:47.643Z,7.45
2018-04-06T06:53:47.886Z,7.8
2018-04-06T06:54:48.142Z,7.78
2018-04-06T06:55:48.114Z,8.07
2018-04-06T06:56:48.100Z,8.16
2018-04-06T06:57:48.091Z,8.49
2018-04-06T06:58:47.555Z,8.71
2018-04-06T06:59:47.538Z,8.98
2018-04-06T07:00:47.785Z,9.44
2018-04-06T07:01:47.773Z,9.9
2018-04-06T07:02:47.763Z,10.54
2018-04-06T07:03:47.747Z,11.02
2018-04-06T07:04:47.994Z,11.43
2018-04-06T07:05:47.724Z,11.81
2018-04-06T07:06:47.980Z,12.04
2018-04-06T07:07:47.718Z,12.28
2018-04-06T07:08:47.944Z,12.83
2018-04-06T07:09:47.934Z,13.37
2018-04-06T07:10:47.408Z,13.62
2018-04-06T07:11:47.652Z,13.79
2018-04-06T07:12:47.642Z,13.88
2018-04-06T07:13:47.627Z,13.93
2018-04-06T07:14:47.364Z,14.3
2018-04-06T07:15:47.605Z,14.61
2018-04-06T07:16:47.861Z,15.02
2018-04-06T07:17:47.843Z,15.1
2018-04-06T07:18:47.825Z,14.97
2018-04-06T07:19:47.298Z,14.69
2018-04-06T07:20:47.289Z,14.48
2018-04-06T07:21:47.534Z,14.59
2018-04-06T07:22:47.522Z,14.36
2018-04-06T07:23:47.512Z,14.08
2018-04-06T07:24:47.508Z,13.68
2018-04-06T07:25:47.495Z,13.21
2018-04-06T07:26:47.738Z,12.25
2018-04-06T07:27:47.728Z,11.63
2018-04-06T07:28:47.461Z,11.12
2018-04-06T07:29:47.718Z,10.7
2018-04-06T07:30:47.173Z,10.25
2018-04-06T07:31:47.421Z,9.85
2018-04-06T07:32:47.147Z,9.38
2018-04-06T07:33:47.655Z,8.72
2018-04-06T07:34:47.404Z,8.21
2018-04-06T07:35:47.374Z,7.58
2018-04-06T07:36:47.358Z,7.22
2018-04-06T07:37:47.368Z,6.86
2018-04-06T07:38:47.596Z,6.55
2018-04-06T07:39:47.065Z,6.28
2018-04-06T07:40:47.308Z,6.03
2018-04-06T07:41:47.556Z,5.92
2018-04-06T07:42:47.288Z,5.75
2018-04-06T07:43:47.555Z,5.59
2018-04-06T07:44:47.264Z,5.45
2018-04-06T07:45:47.249Z,5.44
2018-04-06T07:46:47.235Z,5.24
2018-04-06T07:47:47.481Z,5.33
2018-04-06T07:48:47.467Z,5.36
2018-04-06T07:49:47.195Z,5.39
2018-04-06T07:50:47.598Z,5.44
2018-04-06T07:51:46.910Z,5.57
2018-04-06T07:52:47.156Z,5.66
2018-04-06T07:53:47.403Z,5.67
2018-04-06T07:54:47.389Z,5.72
2018-04-06T07:55:47.378Z,5.64
2018-04-06T07:56:47.362Z,5.51
2018-04-06T07:57:47.347Z,5.55
2018-04-06T07:58:47.334Z,5.59
2018-04-06T07:59:47.076Z,5.48
2018-04-06T08:00:47.051Z,5.63
2018-04-06T08:01:47.038Z,5.62
2018-04-06T08:02:47.281Z,5.64
2018-04-06T08:03:47.272Z,5.75
2018-04-06T08:04:47.252Z,5.89
2018-04-06T08:05:47.237Z,5.91
2018-04-06T08:06:47.234Z,5.91
2018-04-06T08:07:47.212Z,6.07
2018-04-06T08:08:46.683Z,6.17
2018-04-06T08:09:47.183Z,6.17
2018-04-06T08:10:46.924Z,6.13
2018-04-06T08:11:46.908Z,6.24
2018-04-06T08:12:47.148Z,6.24
2018-04-06T08:13:47.140Z,6.13
2018-04-06T08:14:46.869Z,6.1
2018-04-06T08:15:46.851Z,6.07
2018-04-06T08:16:47.099Z,5.96
2018-04-06T08:17:46.825Z,5.91
2018-04-06T08:18:46.808Z,5.87
2018-04-06T08:19:46.796Z,5.89
2018-04-06T08:20:47.044Z,6.03
2018-04-06T08:21:46.513Z,5.99
2018-04-06T08:22:47.016Z,6.13
2018-04-06T08:23:46.747Z,6.09
2018-04-06T08:24:46.733Z,6.21
2018-04-06T08:25:46.975Z,6.21
2018-04-06T08:26:46.708Z,6.31
2018-04-06T08:27:46.694Z,6.34
2018-04-06T08:28:46.687Z,6.39
2018-04-06T08:29:46.929Z,6.36
2018-04-06T08:30:46.913Z,6.42
2018-04-06T08:31:46.640Z,6.39
2018-04-06T08:32:46.883Z,6.44
2018-04-06T08:33:46.876Z,6.58
2018-04-06T08:34:46.604Z,6.68
2018-04-06T08:35:46.856Z,6.76
2018-04-06T08:36:46.573Z,6.85
2018-04-06T08:37:46.815Z,6.83
2018-04-06T08:38:46.549Z,6.9
2018-04-06T08:39:46.534Z,6.76
2018-04-06T08:40:46.779Z,6.76
2018-04-06T08:41:46.771Z,6.8
2018-04-06T08:42:46.502Z,6.83
2018-04-06T08:43:46.747Z,6.9
2018-04-06T08:44:46.469Z,7.01
2018-04-06T08:45:46.199Z,6.86
2018-04-06T08:46:46.446Z,6.88
2018-04-06T08:47:46.432Z,6.88
2018-04-06T08:48:46.678Z,6.86
2018-04-06T08:49:46.666Z,6.93
2018-04-06T08:50:46.650Z,7
2018-04-06T08:51:46.379Z,7.01
2018-04-06T08:52:46.626Z,7.08
2018-04-06T08:53:46.612Z,7.13
2018-04-06T08:54:46.780Z,7.18
2018-04-06T08:55:46.069Z,7.27
2018-04-06T08:56:46.575Z,7.34
2018-04-06T08:57:46.561Z,7.34
2018-04-06T08:58:46.547Z,7.4
2018-04-06T08:59:46.544Z,7.4
2018-04-06T09:00:46.529Z,7.49
2018-04-06T09:01:46.250Z,7.49
2018-04-06T09:02:46.496Z,7.56
2018-04-06T09:03:46.483Z,7.63
2018-04-06T09:04:46.277Z,7.74
2018-04-06T09:05:45.941Z,7.77
2018-04-06T09:06:46.448Z,7.63
2018-04-06T09:07:46.450Z,7.58
2018-04-06T09:08:46.421Z,7.52
2018-04-06T09:09:46.427Z,7.45
2018-04-06T09:10:46.140Z,7.54
2018-04-06T09:11:46.386Z,7.61
2018-04-06T09:12:46.563Z,7.58
2018-04-06T09:13:46.377Z,7.52
2018-04-06T09:14:46.353Z,7.52
2018-04-06T09:15:46.337Z,7.61
2018-04-06T09:16:46.323Z,7.45
2018-04-06T09:17:45.793Z,7.49
2018-04-06T09:18:46.037Z,7.56
2018-04-06T09:19:46.028Z,7.64
2018-04-06T09:20:46.278Z,7.58
2018-04-06T09:21:46.002Z,7.67
2018-04-06T09:22:45.732Z,7.78
2018-04-06T09:23:46.232Z,7.83
2018-04-06T09:24:46.224Z,7.95
2018-04-06T09:25:46.215Z,8.06
2018-04-06T09:26:45.938Z,8.14
2018-04-06T09:27:46.201Z,8.17
2018-04-06T09:28:45.920Z,8.28
2018-04-06T09:29:46.161Z,8.26
2018-04-06T09:30:45.890Z,8.36
2018-04-06T09:31:46.135Z,8.58
2018-04-06T09:32:45.863Z,8.67
2018-04-06T09:33:45.855Z,8.64
2018-04-06T09:34:45.847Z,8.62
2018-04-06T09:35:45.826Z,8.72
2018-04-06T09:36:45.560Z,8.76
2018-04-06T09:37:46.062Z,8.94
2018-04-06T09:38:46.054Z,8.92
2018-04-06T09:39:46.039Z,8.95
2018-04-06T09:40:45.511Z,8.94
2018-04-06T09:41:45.759Z,9.05
2018-04-06T09:42:45.492Z,9.04
2018-04-06T09:43:45.742Z,9.08
2018-04-06T09:44:45.983Z,9.01
2018-04-06T09:45:45.712Z,9
2018-04-06T09:46:45.697Z,9
2018-04-06T09:47:45.944Z,9
2018-04-06T09:48:45.932Z,9.04
2018-04-06T09:49:45.661Z,9.09
2018-04-06T09:50:45.660Z,9.09
2018-04-06T09:51:45.381Z,9.14
2018-04-06T09:52:45.746Z,9.16
2018-04-06T09:53:45.878Z,9.24
2018-04-06T09:54:45.606Z,9.34
2018-04-06T09:55:45.925Z,9.38
2018-04-06T09:56:45.903Z,9.29
2018-04-06T09:57:45.598Z,9.3
2018-04-06T09:58:45.558Z,9.52
2018-04-06T09:59:45.812Z,9.55
2018-04-06T10:00:45.535Z,9.6
2018-04-06T10:01:45.534Z,9.63
2018-04-06T10:02:45.779Z,9.55
2018-04-06T10:03:45.763Z,9.56
2018-04-06T10:04:45.748Z,9.53
2018-04-06T10:05:45.480Z,9.55
2018-04-06T10:06:45.470Z,9.66
2018-04-06T10:07:45.721Z,9.6
2018-04-06T10:08:45.968Z,9.8
2018-04-06T10:09:45.180Z,9.81
2018-04-06T10:10:45.706Z,9.81
2018-04-06T10:11:45.418Z,9.88
2018-04-06T10:12:45.405Z,9.81
2018-04-06T10:13:45.656Z,9.8
2018-04-06T10:14:45.644Z,9.9
2018-04-06T10:15:45.114Z,9.88
2018-04-06T10:16:45.619Z,9.93
2018-04-06T10:17:45.352Z,10
2018-04-06T10:18:45.353Z,10
2018-04-06T10:19:45.337Z,10.03
2018-04-06T10:20:45.573Z,10.02
2018-04-06T10:21:45.311Z,10.13
2018-04-06T10:22:45.590Z,10.11
2018-04-06T10:23:45.289Z,10
2018-04-06T10:24:45.022Z,10.05
2018-04-06T10:25:45.317Z,9.9
2018-04-06T10:26:45.256Z,9.85
2018-04-06T10:27:45.520Z,9.84
2018-04-06T10:28:45.490Z,9.9
2018-04-06T10:29:45.487Z,9.93
2018-04-06T10:30:45.469Z,9.99
2018-04-06T10:31:45.464Z,10.07
2018-04-06T10:32:45.454Z,10.1
2018-04-06T10:33:44.924Z,10.03
2018-04-06T10:34:45.429Z,10.03
2018-04-06T10:35:45.165Z,10.08
2018-04-06T10:36:45.415Z,10.13
2018-04-06T10:37:45.404Z,10.28
2018-04-06T10:38:45.125Z,10.29
2018-04-06T10:39:44.858Z,10.17
2018-04-06T10:40:45.369Z,10.05
2018-04-06T10:41:45.353Z,10
2018-04-06T10:42:45.085Z,10.18
2018-04-06T10:43:45.078Z,10.15
2018-04-06T10:44:45.062Z,10.07
2018-04-06T10:45:45.059Z,10.08
2018-04-06T10:46:45.345Z,10.14
2018-04-06T10:47:45.034Z,10.18
2018-04-06T10:48:45.024Z,10.21
2018-04-06T10:49:45.015Z,10.13
2018-04-06T10:50:45.004Z,10.17
2018-04-06T10:51:45.252Z,10.02
2018-04-06T10:52:44.982Z,10.11
2018-04-06T10:53:44.714Z,10.21
2018-04-06T10:54:45.213Z,10.15
2018-04-06T10:55:44.952Z,10.23
2018-04-06T10:56:45.197Z,10.28
2018-04-06T10:57:45.187Z,10.35
2018-04-06T10:58:45.249Z,10.29
2018-04-06T10:59:44.906Z,10.35
2018-04-06T11:00:44.896Z,10.38
2018-04-06T11:01:44.627Z,10.39
2018-04-06T11:02:44.878Z,10.52
2018-04-06T11:03:45.123Z,10.54
2018-04-06T11:04:45.118Z,10.69
2018-04-06T11:05:45.102Z,10.63
2018-04-06T11:06:45.095Z,10.77
2018-04-06T11:07:44.823Z,10.72
2018-04-06T11:08:44.814Z,10.91
2018-04-06T11:09:45.061Z,11.05
2018-04-06T11:10:45.052Z,11.1
2018-04-06T11:11:44.783Z,11.12
2018-04-06T11:12:44.774Z,11.39
2018-04-06T11:13:44.766Z,11.38
2018-04-06T11:14:44.754Z,11.49
2018-04-06T11:15:45.006Z,11.49
2018-04-06T11:16:44.994Z,11.51
2018-04-06T11:17:44.992Z,11.53
2018-04-06T11:18:44.976Z,11.43
2018-04-06T11:19:44.963Z,11.56
2018-04-06T11:20:44.696Z,11.64
2018-04-06T11:21:44.688Z,11.67
2018-04-06T11:22:44.932Z,11.81
2018-04-06T11:23:44.926Z,11.86
2018-04-06T11:24:44.914Z,11.84
2018-04-06T11:25:44.387Z,11.76
2018-04-06T11:26:44.377Z,11.91
2018-04-06T11:27:44.628Z,11.78
2018-04-06T11:28:44.360Z,11.66
2018-04-06T11:29:44.610Z,11.53
2018-04-06T11:30:44.860Z,11.51
2018-04-06T11:31:44.846Z,11.56
2018-04-06T11:32:44.582Z,11.45
2018-04-06T11:33:44.835Z,11.35
2018-04-06T11:34:44.561Z,11.31
2018-04-06T11:35:44.813Z,11.39
2018-04-06T11:36:44.806Z,11.26
2018-04-06T11:37:44.791Z,11.34
2018-04-06T11:38:44.787Z,11.45
2018-04-06T11:39:44.518Z,11.35
2018-04-06T11:40:44.508Z,11.28
2018-04-06T11:41:44.757Z,11.43
2018-04-06T11:42:44.483Z,11.41
2018-04-06T11:43:44.738Z,11.39
2018-04-06T11:44:44.211Z,11.41
2018-04-06T11:45:44.719Z,11.31
2018-04-06T11:46:44.704Z,11.34
2018-04-06T11:47:44.438Z,11.42
2018-04-06T11:48:44.690Z,11.35
2018-04-06T11:49:44.680Z,11.21
2018-04-06T11:50:44.666Z,11.18
2018-04-06T11:51:44.656Z,11.18
2018-04-06T11:52:44.651Z,11.1
2018-04-06T11:53:44.412Z,11.26
2018-04-06T11:54:44.629Z,11.28
2018-04-06T11:55:44.363Z,11.31
2018-04-06T11:56:44.631Z,11.43
2018-04-06T11:57:44.608Z,11.43
2018-04-06T11:58:44.336Z,11.59
2018-04-06T11:59:44.630Z,11.57
2018-04-06T12:00:44.071Z,11.56
2018-04-06T12:01:44.311Z,11.45
2018-04-06T12:02:44.312Z,11.48
2018-04-06T12:03:44.290Z,11.41
2018-04-06T12:04:44.280Z,11.33
2018-04-06T12:05:44.273Z,11.33
2018-04-06T12:06:44.005Z,11.35
2018-04-06T12:07:44.507Z,11.45
2018-04-06T12:08:44.246Z,11.42
2018-04-06T12:09:44.238Z,11.42
2018-04-06T12:10:44.488Z,11.48
2018-04-06T12:11:44.482Z,11.51
2018-04-06T12:12:44.209Z,11.52
2018-04-06T12:13:43.942Z,11.43
2018-04-06T12:14:44.188Z,11.51
2018-04-06T12:15:44.181Z,11.39
2018-04-06T12:16:44.169Z,11.34
2018-04-06T12:17:44.418Z,11.38
2018-04-06T12:18:44.415Z,11.33
2018-04-06T12:19:44.146Z,11.31
2018-04-06T12:20:44.137Z,11.49
2018-04-06T12:21:44.385Z,11.42
2018-04-06T12:22:44.119Z,11.45
2018-04-06T12:23:44.415Z,11.35
2018-04-06T12:24:44.358Z,11.43
2018-04-06T12:25:44.098Z,11.3
2018-04-06T12:26:44.078Z,11.34
2018-04-06T12:27:44.074Z,11.35
2018-04-06T12:28:44.058Z,11.27
2018-04-06T12:29:44.051Z,11.31
2018-04-06T12:30:44.040Z,11.31
2018-04-06T12:31:44.029Z,11.33
2018-04-06T12:32:44.282Z,11.28
2018-04-06T12:33:44.275Z,11.26
2018-04-06T12:34:44.005Z,11.26
2018-04-06T12:35:43.993Z,11.24
2018-04-06T12:36:43.990Z,11.35
2018-04-06T12:37:44.243Z,11.31
2018-04-06T12:38:44.226Z,11.34
2018-04-06T12:39:43.960Z,11.41
2018-04-06T12:40:44.208Z,11.34
2018-04-06T12:41:44.206Z,11.35
2018-04-06T12:42:43.930Z,11.46
2018-04-06T12:43:43.926Z,11.45
2018-04-06T12:44:43.654Z,11.46
2018-04-06T12:45:44.162Z,11.39
2018-04-06T12:46:43.636Z,11.39
2018-04-06T12:47:43.884Z,11.34
2018-04-06T12:48:44.141Z,11.33
2018-04-06T12:49:44.133Z,11.31
2018-04-06T12:50:43.600Z,11.38
2018-04-06T12:51:44.106Z,11.33
2018-04-06T12:52:44.098Z,11.43
2018-04-06T12:53:43.835Z,11.39
2018-04-06T12:54:44.082Z,11.49
2018-04-06T12:55:44.069Z,11.56
2018-04-06T12:56:44.079Z,11.56
2018-04-06T12:57:43.794Z,11.57
2018-04-06T12:58:43.789Z,11.59
2018-04-06T12:59:44.036Z,11.48
2018-04-06T13:00:43.766Z,11.41
2018-04-06T13:01:44.020Z,11.45
2018-04-06T13:02:43.744Z,11.42
2018-04-06T13:03:43.743Z,11.41
2018-04-06T13:04:43.993Z,11.34
2018-04-06T13:05:43.722Z,11.34
2018-04-06T13:06:43.711Z,11.42
2018-04-06T13:07:43.999Z,11.39